createdAt,value
2023-04-04T00:01:07.719Z,25.81
2023-04-04T00:03:36.228Z,25.85
2023-04-04T00:06:04.686Z,25.88
2023-04-04T00:08:33.136Z,25.94
2023-04-04T00:11:02.250Z,25.98
2023-04-04T00:13:31.092Z,26.02
2023-04-04T00:15:59.742Z,26.07
2023-04-04T00:18:28.410Z,26.11
2023-04-04T00:20:56.884Z,26.18
2023-04-04T00:23:25.354Z,26.24
2023-04-04T00:25:54.486Z,26.31
2023-04-04T00:28:23.386Z,26.36
2023-04-04T00:30:51.864Z,26.44
2023-04-04T00:33:20.419Z,26.49
2023-04-04T00:35:50.195Z,26.57
2023-04-04T00:38:18.604Z,26.62
2023-04-04T00:40:50.599Z,26.69
2023-04-04T00:43:20.114Z,26.77
2023-04-04T00:45:48.873Z,26.83
2023-04-04T00:48:17.553Z,26.90
2023-04-04T00:50:45.947Z,26.97
2023-04-04T00:53:14.373Z,27.01
2023-04-04T00:55:44.414Z,27.08
2023-04-04T00:58:13.435Z,27.16
2023-04-04T01:00:42.302Z,27.24
2023-04-04T01:03:13.618Z,27.31
2023-04-04T01:05:42.772Z,27.37
2023-04-04T01:08:11.253Z,27.44
2023-04-04T01:10:41.701Z,27.50
2023-04-04T01:13:10.748Z,27.55
2023-04-04T01:15:39.254Z,27.62
2023-04-04T01:18:08.726Z,27.69
2023-04-04T01:20:43.667Z,27.75
2023-04-04T01:23:13.676Z,27.82
2023-04-04T01:25:42.459Z,27.88
2023-04-04T01:28:11.030Z,27.94
2023-04-04T01:30:42.189Z,27.99
2023-04-04T01:33:33.186Z,28.08
2023-04-04T01:36:07.620Z,28.13
2023-04-04T01:38:48.228Z,28.19
2023-04-04T01:41:18.871Z,28.24
2023-04-04T01:43:47.705Z,28.31
2023-04-04T01:46:19.575Z,28.35
2023-04-04T01:48:48.098Z,28.42
2023-04-04T01:51:17.236Z,28.47
2023-04-04T01:53:45.875Z,28.52
2023-04-04T01:56:14.287Z,28.58
2023-04-04T01:58:42.677Z,28.63
2023-04-04T02:01:11.101Z,28.70
2023-04-04T02:03:39.522Z,28.76
2023-04-04T02:06:08.868Z,28.81
2023-04-04T02:08:37.391Z,28.90
2023-04-04T02:11:05.874Z,28.96
2023-04-04T02:13:34.310Z,29.02
2023-04-04T02:16:02.780Z,29.08
2023-04-04T02:18:31.201Z,29.14
2023-04-04T02:20:59.599Z,29.22
2023-04-04T02:23:28.031Z,29.29
2023-04-04T02:25:56.555Z,29.35
2023-04-04T02:28:24.991Z,29.42
2023-04-04T02:30:53.409Z,29.50
2023-04-04T02:33:21.863Z,29.58
2023-04-04T02:35:50.356Z,29.65
2023-04-04T02:38:18.765Z,29.72
2023-04-04T02:40:47.437Z,29.78
2023-04-04T02:43:15.847Z,29.85
2023-04-04T02:45:44.291Z,29.93
2023-04-04T02:48:12.729Z,29.99
2023-04-04T02:50:41.276Z,30.06
2023-04-04T02:53:09.759Z,30.16
2023-04-04T02:55:38.246Z,30.22
2023-04-04T02:58:06.685Z,30.31
2023-04-04T03:00:35.050Z,30.39
2023-04-04T03:03:03.559Z,30.46
2023-04-04T03:05:35.507Z,30.56
2023-04-04T03:08:03.936Z,30.65
2023-04-04T03:10:32.596Z,30.74
2023-04-04T03:13:01.460Z,30.83
2023-04-04T03:15:30.082Z,30.89
2023-04-04T03:17:59.838Z,30.96
2023-04-04T03:20:29.056Z,31.06
2023-04-04T03:22:58.683Z,31.15
2023-04-04T03:25:27.221Z,31.21
2023-04-04T03:27:55.706Z,31.28
2023-04-04T03:30:24.336Z,31.34
2023-04-04T03:32:52.757Z,31.42
2023-04-04T03:35:21.220Z,31.52
2023-04-04T03:37:49.634Z,31.59
2023-04-04T03:40:18.128Z,31.67
2023-04-04T03:42:46.669Z,31.77
2023-04-04T03:45:15.111Z,31.88
2023-04-04T03:47:43.533Z,31.96
2023-04-04T03:50:12.418Z,32.04
2023-04-04T03:52:43.809Z,32.12
2023-04-04T03:55:12.346Z,32.19
2023-04-04T03:57:40.784Z,32.25
2023-04-04T04:00:09.714Z,32.29
2023-04-04T04:02:38.217Z,32.38
2023-04-04T04:05:07.073Z,32.45
2023-04-04T04:07:35.654Z,32.54
2023-04-04T04:10:04.533Z,32.63
2023-04-04T04:12:32.923Z,32.71
2023-04-04T04:15:01.882Z,32.79
2023-04-04T04:17:30.298Z,32.88
2023-04-04T04:19:58.706Z,32.95
2023-04-04T04:22:27.128Z,33.02
2023-04-04T04:24:55.555Z,33.07
2023-04-04T04:27:24.715Z,33.13
2023-04-04T04:29:53.151Z,33.17
2023-04-04T04:32:21.829Z,33.24
2023-04-04T04:34:50.205Z,33.32
2023-04-04T04:37:18.699Z,33.36
2023-04-04T04:39:47.126Z,33.42
2023-04-04T04:42:15.645Z,33.47
2023-04-04T04:44:44.001Z,33.56
2023-04-04T04:47:12.402Z,33.65
2023-04-04T04:49:40.946Z,33.72
2023-04-04T04:52:09.440Z,33.79
2023-04-04T04:54:37.913Z,33.87
2023-04-04T04:57:06.350Z,33.95
2023-04-04T04:59:34.725Z,34.00
2023-04-04T05:02:03.167Z,34.02
2023-04-04T05:04:31.712Z,34.07
2023-04-04T05:07:00.176Z,34.08
2023-04-04T05:09:28.699Z,34.10
2023-04-04T05:11:57.397Z,34.12
2023-04-04T05:14:25.806Z,34.14
2023-04-04T05:16:54.548Z,34.22
2023-04-04T05:19:23.613Z,34.26
2023-04-04T05:21:52.115Z,34.29
2023-04-04T05:24:20.713Z,34.30
2023-04-04T05:26:49.114Z,34.37
2023-04-04T05:29:17.503Z,34.41
2023-04-04T05:31:45.926Z,34.47
2023-04-04T05:34:14.314Z,34.51
2023-04-04T05:36:42.752Z,34.57
2023-04-04T05:39:11.137Z,34.61
2023-04-04T05:41:39.654Z,34.64
2023-04-04T05:44:08.126Z,34.63
2023-04-04T05:46:36.835Z,34.61
2023-04-04T05:49:05.329Z,34.57
2023-04-04T05:51:33.746Z,34.56
2023-04-04T05:54:02.137Z,34.53
2023-04-04T05:56:30.688Z,34.51
2023-04-04T05:59:00.260Z,34.47
2023-04-04T06:01:30.270Z,34.48
2023-04-04T06:03:58.707Z,34.43
2023-04-04T06:06:27.343Z,34.39
2023-04-04T06:08:55.799Z,34.36
2023-04-04T06:11:24.336Z,34.46
2023-04-04T06:13:54.072Z,34.58
2023-04-04T06:16:23.602Z,34.63
2023-04-04T06:18:52.129Z,34.72
2023-04-04T06:21:20.518Z,34.78
2023-04-04T06:23:48.880Z,34.88
2023-04-04T06:26:17.634Z,35.00
2023-04-04T06:28:52.407Z,35.10
2023-04-04T06:31:20.898Z,35.06
2023-04-04T06:33:49.343Z,35.02
2023-04-04T06:36:17.892Z,35.09
2023-04-04T06:38:46.565Z,35.11
2023-04-04T06:41:14.933Z,35.17
2023-04-04T06:43:43.407Z,35.31
2023-04-04T06:46:11.827Z,35.36
2023-04-04T06:48:40.183Z,35.35
2023-04-04T06:51:09.440Z,35.29
2023-04-04T06:53:38.558Z,35.25
2023-04-04T06:56:07.448Z,35.32
2023-04-04T06:58:35.892Z,35.40
2023-04-04T07:01:04.311Z,35.49
2023-04-04T07:03:33.102Z,35.59
2023-04-04T07:06:05.340Z,35.66
2023-04-04T07:08:36.873Z,35.71
2023-04-04T07:11:07.381Z,35.74
2023-04-04T07:13:36.418Z,35.75
2023-04-04T07:16:04.887Z,35.83
2023-04-04T07:18:33.417Z,35.83
2023-04-04T07:21:01.900Z,35.89
2023-04-04T07:23:30.275Z,35.92
2023-04-04T07:25:58.814Z,35.89
2023-04-04T07:28:27.305Z,35.90
2023-04-04T07:30:55.751Z,35.91
2023-04-04T07:33:24.224Z,35.95
2023-04-04T07:35:54.118Z,36.01
2023-04-04T07:38:22.885Z,36.02
2023-04-04T07:40:51.588Z,36.07
2023-04-04T07:43:19.981Z,36.00
2023-04-04T07:45:48.518Z,35.96
2023-04-04T07:48:17.002Z,35.94
2023-04-04T07:50:45.452Z,35.91
2023-04-04T07:53:13.813Z,35.90
2023-04-04T07:55:42.243Z,35.90
2023-04-04T07:58:10.617Z,35.90
2023-04-04T08:00:39.254Z,35.89
2023-04-04T08:03:08.089Z,35.87
2023-04-04T08:05:36.613Z,35.85
2023-04-04T08:08:05.044Z,35.81
2023-04-04T08:10:33.484Z,35.78
2023-04-04T08:13:01.934Z,35.75
2023-04-04T08:15:31.806Z,35.72
2023-04-04T08:18:00.279Z,35.67
2023-04-04T08:20:29.468Z,35.66
2023-04-04T08:22:58.384Z,35.67
2023-04-04T08:25:26.770Z,35.64
2023-04-04T08:27:55.156Z,35.63
2023-04-04T08:30:23.710Z,35.60
2023-04-04T08:32:52.112Z,35.59
2023-04-04T08:35:21.100Z,35.57
2023-04-04T08:37:49.680Z,35.56
2023-04-04T08:40:18.486Z,35.54
2023-04-04T08:42:48.073Z,35.51
2023-04-04T08:48:05.190Z,35.46
2023-04-04T08:50:35.032Z,35.39
2023-04-04T08:53:05.735Z,35.34
2023-04-04T08:55:34.134Z,35.28
2023-04-04T08:58:02.794Z,35.24
2023-04-04T09:00:31.575Z,35.21
2023-04-04T09:03:25.252Z,35.18
2023-04-04T09:05:56.363Z,35.12
2023-04-04T09:08:25.759Z,35.09
2023-04-04T09:10:54.604Z,35.00
2023-04-04T09:13:23.772Z,34.97
2023-04-04T09:15:58.384Z,34.94
2023-04-04T09:18:26.766Z,34.87
2023-04-04T09:20:55.471Z,34.86
2023-04-04T09:23:24.729Z,34.84
2023-04-04T09:26:03.970Z,34.81
2023-04-04T09:28:34.381Z,34.79
2023-04-04T09:31:06.504Z,34.74
2023-04-04T09:33:36.056Z,34.70
2023-04-04T09:36:11.300Z,34.67
2023-04-04T09:38:46.364Z,34.64
2023-04-04T09:41:19.777Z,34.62
2023-04-04T09:43:49.418Z,34.60
2023-04-04T09:46:22.149Z,34.57
2023-04-04T09:48:55.856Z,34.56
2023-04-04T09:51:24.264Z,34.53
2023-04-04T09:53:52.886Z,34.50
2023-04-04T09:56:22.001Z,34.46
2023-04-04T10:01:22.590Z,34.37
2023-04-04T10:03:58.084Z,34.31
2023-04-04T10:06:27.821Z,34.28
2023-04-04T10:08:59.426Z,34.24
2023-04-04T10:11:35.717Z,34.21
2023-04-04T10:14:07.675Z,34.17
2023-04-04T10:16:40.141Z,34.14
2023-04-04T10:19:09.777Z,34.06
2023-04-04T10:21:38.306Z,34.00
2023-04-04T10:24:11.234Z,33.95
2023-04-04T10:26:39.824Z,33.91
2023-04-04T10:29:08.285Z,33.85
2023-04-04T10:31:42.239Z,33.83
2023-04-04T10:34:46.313Z,33.77
2023-04-04T10:37:18.632Z,33.72
2023-04-04T10:40:05.354Z,33.67
2023-04-04T10:42:47.419Z,33.60
2023-04-04T10:45:21.646Z,33.56
2023-04-04T10:47:51.908Z,33.51
2023-04-04T10:50:21.922Z,33.46
2023-04-04T10:52:51.861Z,33.40
2023-04-04T10:55:20.778Z,33.33
2023-04-04T10:57:53.515Z,33.28
2023-04-04T11:00:24.550Z,33.23
2023-04-04T11:03:01.079Z,33.18
2023-04-04T11:05:38.521Z,33.13
2023-04-04T11:08:09.837Z,33.07
2023-04-04T11:10:46.204Z,33.01
2023-04-04T11:13:33.440Z,32.94
2023-04-04T11:16:08.471Z,32.87
2023-04-04T11:18:42.749Z,32.78
2023-04-04T11:21:20.826Z,32.70
2023-04-04T11:23:49.672Z,32.64
2023-04-04T11:26:38.139Z,32.54
2023-04-04T11:29:10.593Z,32.48
2023-04-04T11:31:46.180Z,32.39
2023-04-04T11:34:16.315Z,32.34
2023-04-04T11:36:45.927Z,32.25
2023-04-04T11:39:29.461Z,32.19
2023-04-04T11:42:09.287Z,32.13
2023-04-04T11:45:04.605Z,32.07
2023-04-04T11:47:33.303Z,32.02
2023-04-04T11:50:03.423Z,31.96
2023-04-04T11:52:39.321Z,31.92
2023-04-04T11:55:19.114Z,31.84
2023-04-04T11:57:52.443Z,31.79
2023-04-04T12:00:38.876Z,31.70
2023-04-04T12:03:11.978Z,31.64
2023-04-04T12:05:42.442Z,31.58
2023-04-04T12:08:13.437Z,31.51
2023-04-04T12:10:42.320Z,31.44
2023-04-04T12:13:11.644Z,31.37
2023-04-04T12:15:40.551Z,31.31
2023-04-04T12:18:10.156Z,31.25
2023-04-04T12:20:42.471Z,31.20
2023-04-04T12:23:11.135Z,31.14
2023-04-04T12:25:45.048Z,31.08
2023-04-04T12:28:14.023Z,31.01
2023-04-04T12:30:42.668Z,30.96
2023-04-04T12:33:11.173Z,30.90
2023-04-04T12:35:40.062Z,30.83
2023-04-04T12:38:11.674Z,30.77
2023-04-04T12:40:41.003Z,30.70
2023-04-04T12:43:10.659Z,30.63
2023-04-04T12:45:41.557Z,30.58
2023-04-04T12:48:15.847Z,30.52
2023-04-04T12:51:11.555Z,30.47
2023-04-04T12:53:59.373Z,30.41
2023-04-04T12:56:28.978Z,30.37
2023-04-04T12:59:05.680Z,30.32
2023-04-04T13:01:34.527Z,30.28
2023-04-04T13:04:05.662Z,30.23
2023-04-04T13:06:34.569Z,30.18
2023-04-04T13:09:03.205Z,30.14
2023-04-04T13:11:58.810Z,30.08
2023-04-04T13:14:28.831Z,30.06
2023-04-04T13:17:09.282Z,30.02
2023-04-04T13:19:37.896Z,29.98
2023-04-04T13:22:10.457Z,29.95
2023-04-04T13:24:39.883Z,29.92
2023-04-04T13:27:09.314Z,29.89
2023-04-04T13:29:37.750Z,29.84
2023-04-04T13:32:06.457Z,29.81
2023-04-04T13:34:36.953Z,29.78
2023-04-04T13:37:05.635Z,29.75
2023-04-04T13:39:34.139Z,29.73
2023-04-04T13:42:04.485Z,29.70
2023-04-04T13:44:32.974Z,29.67
2023-04-04T13:47:01.523Z,29.66
2023-04-04T13:49:30.005Z,29.65
2023-04-04T13:51:58.476Z,29.63
2023-04-04T13:54:27.575Z,29.61
2023-04-04T13:56:55.979Z,29.58
2023-04-04T13:59:24.408Z,29.57
2023-04-04T14:01:53.021Z,29.52
2023-04-04T14:04:24.052Z,29.51
2023-04-04T14:06:52.819Z,29.48
2023-04-04T14:09:21.297Z,29.47
2023-04-04T14:11:49.672Z,29.44
2023-04-04T14:14:18.367Z,29.43
2023-04-04T14:16:46.842Z,29.41
2023-04-04T14:19:16.502Z,29.40
2023-04-04T14:21:44.938Z,29.39
2023-04-04T14:24:13.380Z,29.38
2023-04-04T14:26:41.830Z,29.36
2023-04-04T14:29:10.263Z,29.34
2023-04-04T14:31:38.770Z,29.32
2023-04-04T14:34:08.329Z,29.31
2023-04-04T14:36:37.474Z,29.30
2023-04-04T14:39:06.115Z,29.29
2023-04-04T14:41:34.634Z,29.29
2023-04-04T14:44:03.253Z,29.28
2023-04-04T14:46:32.155Z,29.27
2023-04-04T14:49:00.754Z,29.25
2023-04-04T14:51:29.298Z,29.23
2023-04-04T14:53:58.142Z,29.22
2023-04-04T14:56:27.098Z,29.21
2023-04-04T14:58:55.794Z,29.21
2023-04-04T15:01:24.696Z,29.20
2023-04-04T15:03:54.962Z,29.19
2023-04-04T15:06:23.478Z,29.18
2023-04-04T15:08:52.061Z,29.15
2023-04-04T15:11:23.968Z,29.14
2023-04-04T15:13:52.304Z,29.11
2023-04-04T15:16:20.668Z,29.10
2023-04-04T15:18:49.046Z,29.07
2023-04-04T15:21:17.971Z,29.05
2023-04-04T15:23:46.992Z,29.02
2023-04-04T15:26:15.338Z,29.01
2023-04-04T15:28:43.673Z,29.00
2023-04-04T15:31:14.957Z,28.98
2023-04-04T15:33:44.292Z,28.98
2023-04-04T15:36:12.613Z,28.96
2023-04-04T15:38:41.817Z,28.96
2023-04-04T15:41:11.337Z,28.94
2023-04-04T15:43:39.772Z,28.93
2023-04-04T15:46:08.209Z,28.89
2023-04-04T15:48:36.776Z,28.89
2023-04-04T15:51:05.689Z,28.87
2023-04-04T15:53:34.501Z,28.86
2023-04-04T15:56:03.085Z,28.82
2023-04-04T15:58:31.522Z,28.81
2023-04-04T16:00:59.982Z,28.80
2023-04-04T16:03:28.574Z,28.77
2023-04-04T16:05:57.406Z,28.74
2023-04-04T16:08:25.751Z,28.72
2023-04-04T16:10:54.236Z,28.68
2023-04-04T16:13:23.607Z,28.68
2023-04-04T16:15:52.020Z,28.66
2023-04-04T16:18:20.362Z,28.65
2023-04-04T16:20:48.750Z,28.62
2023-04-04T16:23:19.401Z,28.60
2023-04-04T16:25:47.985Z,28.58
2023-04-04T16:28:16.441Z,28.55
2023-04-04T16:30:44.904Z,28.52
2023-04-04T16:33:13.270Z,28.49
2023-04-04T16:35:41.801Z,28.46
2023-04-04T16:38:10.207Z,28.44
2023-04-04T16:40:38.814Z,28.41
2023-04-04T16:43:07.478Z,28.39
2023-04-04T16:45:35.923Z,28.35
2023-04-04T16:48:04.324Z,28.33
2023-04-04T16:50:32.706Z,28.28
2023-04-04T16:53:01.904Z,28.26
2023-04-04T16:55:30.438Z,28.22
2023-04-04T16:57:59.561Z,28.18
2023-04-04T17:00:27.908Z,28.13
2023-04-04T17:02:56.803Z,28.09
2023-04-04T17:05:25.266Z,28.04
2023-04-04T17:07:53.608Z,28.00
2023-04-04T17:10:22.330Z,27.95
2023-04-04T17:12:50.742Z,27.91
2023-04-04T17:15:19.602Z,27.88
2023-04-04T17:17:47.984Z,27.83
2023-04-04T17:20:20.047Z,27.78
2023-04-04T17:22:50.591Z,27.72
2023-04-04T17:25:21.526Z,27.66
2023-04-04T17:27:49.913Z,27.60
2023-04-04T17:30:18.415Z,27.54
2023-04-04T17:32:47.898Z,27.49
2023-04-04T17:35:16.815Z,27.43
2023-04-04T17:37:45.263Z,27.40
2023-04-04T17:40:14.099Z,27.36
2023-04-04T17:42:42.833Z,27.30
2023-04-04T17:45:11.601Z,27.27
2023-04-04T17:47:40.400Z,27.22
2023-04-04T17:50:09.185Z,27.17
2023-04-04T17:52:37.817Z,27.13
2023-04-04T17:55:06.555Z,27.09
2023-04-04T17:57:35.154Z,27.06
2023-04-04T18:00:03.536Z,27.05
2023-04-04T18:02:32.018Z,27.01
2023-04-04T18:05:00.652Z,26.99
2023-04-04T18:07:29.036Z,26.97
2023-04-04T18:09:57.533Z,26.96
2023-04-04T18:12:28.133Z,26.93
2023-04-04T18:14:56.564Z,26.90
2023-04-04T18:17:25.690Z,26.87
2023-04-04T18:19:55.649Z,26.85
2023-04-04T18:22:24.187Z,26.84
2023-04-04T18:24:52.545Z,26.80
2023-04-04T18:27:20.888Z,26.77
2023-04-04T18:29:49.346Z,26.72
2023-04-04T18:32:19.048Z,26.67
2023-04-04T18:34:47.542Z,26.61
2023-04-04T18:37:16.145Z,26.56
2023-04-04T18:39:46.440Z,26.51
2023-04-04T18:42:15.041Z,26.48
2023-04-04T18:44:43.530Z,26.45
2023-04-04T18:47:12.706Z,26.44
2023-04-04T18:49:41.121Z,26.43
2023-04-04T18:52:09.480Z,26.41
2023-04-04T18:54:38.166Z,26.37
2023-04-04T18:57:06.614Z,26.34
2023-04-04T18:59:35.768Z,26.33
2023-04-04T19:02:04.175Z,26.28
2023-04-04T19:04:36.056Z,26.27
2023-04-04T19:07:07.839Z,26.25
2023-04-04T19:09:39.092Z,26.22
2023-04-04T19:12:07.560Z,26.22
2023-04-04T19:14:35.909Z,26.21
2023-04-04T19:17:04.388Z,26.18
2023-04-04T19:19:32.766Z,26.16
2023-04-04T19:22:01.448Z,26.15
2023-04-04T19:24:30.408Z,26.13
2023-04-04T19:26:58.766Z,26.09
2023-04-04T19:29:27.146Z,26.03
2023-04-04T19:31:56.378Z,25.97
2023-04-04T19:34:24.681Z,25.92
2023-04-04T19:36:53.105Z,25.86
2023-04-04T19:39:24.311Z,25.83
2023-04-04T19:41:52.747Z,25.80
2023-04-04T19:44:22.189Z,25.74
2023-04-04T19:46:51.251Z,25.68
2023-04-04T19:49:20.247Z,25.64
2023-04-04T19:51:55.364Z,25.63
2023-04-04T19:54:32.994Z,25.61
2023-04-04T19:57:08.577Z,25.62
2023-04-04T19:59:58.790Z,25.59
2023-04-04T20:02:37.130Z,25.56
2023-04-04T20:05:28.147Z,25.55
2023-04-04T20:07:56.975Z,25.55
2023-04-04T20:10:40.384Z,25.55
2023-04-04T20:13:09.633Z,25.53
2023-04-04T20:15:48.282Z,25.51
2023-04-04T20:18:29.837Z,25.50
2023-04-04T20:20:59.561Z,25.49
2023-04-04T20:23:28.695Z,25.45
2023-04-04T20:26:10.886Z,25.44
2023-04-04T20:28:39.342Z,25.42
2023-04-04T20:31:11.660Z,25.40
2023-04-04T20:33:42.275Z,25.39
2023-04-04T20:36:21.292Z,25.37
2023-04-04T20:38:50.013Z,25.35
2023-04-04T20:41:25.409Z,25.34
2023-04-04T20:43:59.479Z,25.32
2023-04-04T20:46:29.063Z,25.30
2023-04-04T20:48:57.667Z,25.27
2023-04-04T20:51:32.374Z,25.25
2023-04-04T20:54:05.178Z,25.24
2023-04-04T20:56:47.546Z,25.22
2023-04-04T20:59:37.861Z,25.19
2023-04-04T21:02:10.830Z,25.17
2023-04-04T21:04:40.690Z,25.15
2023-04-04T21:07:09.352Z,25.13
2023-04-04T21:09:37.775Z,25.12
2023-04-04T21:12:07.798Z,25.11
2023-04-04T21:14:39.680Z,25.11
2023-04-04T21:17:08.513Z,25.09
2023-04-04T21:19:37.015Z,25.09
2023-04-04T21:22:07.965Z,25.07
2023-04-04T21:24:37.560Z,25.08
2023-04-04T21:27:08.277Z,25.07
2023-04-04T21:29:36.756Z,25.05
2023-04-04T21:32:08.925Z,25.04
2023-04-04T21:34:37.307Z,25.03
2023-04-04T21:37:08.231Z,25.01
2023-04-04T21:39:37.864Z,24.98
2023-04-04T21:42:08.829Z,24.96
2023-04-04T21:44:43.217Z,24.95
2023-04-04T21:47:12.622Z,24.93
2023-04-04T21:49:41.931Z,24.90
2023-04-04T21:52:12.671Z,24.89
2023-04-04T21:54:41.516Z,24.87
2023-04-04T21:57:09.866Z,24.84
2023-04-04T21:59:38.275Z,24.82
2023-04-04T22:02:06.728Z,24.80
2023-04-04T22:04:35.134Z,24.78
2023-04-04T22:07:03.473Z,24.75
2023-04-04T22:09:31.819Z,24.75
2023-04-04T22:12:03.878Z,24.72
2023-04-04T22:14:32.864Z,24.68
2023-04-04T22:17:03.975Z,24.67
2023-04-04T22:19:44.089Z,24.66
2023-04-04T22:22:12.408Z,24.65
2023-04-04T22:24:41.764Z,24.63
2023-04-04T22:27:10.113Z,24.61
2023-04-04T22:29:38.457Z,24.60
2023-04-04T22:32:07.232Z,24.57
2023-04-04T22:34:35.845Z,24.57
2023-04-04T22:37:05.416Z,24.57
2023-04-04T22:39:34.199Z,24.56
2023-04-04T22:42:02.600Z,24.56
2023-04-04T22:44:31.040Z,24.55
2023-04-04T22:46:59.437Z,24.56
2023-04-04T22:49:27.771Z,24.54
2023-04-04T22:51:56.489Z,24.53
2023-04-04T22:54:25.290Z,24.52
2023-04-04T22:56:54.017Z,24.52
2023-04-04T22:59:22.416Z,24.51
2023-04-04T23:01:50.813Z,24.50
2023-04-04T23:04:19.347Z,24.49
2023-04-04T23:06:47.962Z,24.47
2023-04-04T23:09:16.653Z,24.45
2023-04-04T23:11:44.984Z,24.46
2023-04-04T23:14:15.930Z,24.46
2023-04-04T23:16:44.454Z,24.46
2023-04-04T23:19:15.805Z,24.44
2023-04-04T23:21:44.757Z,24.46
2023-04-04T23:24:13.190Z,24.46
2023-04-04T23:26:41.678Z,24.47
2023-04-04T23:29:10.813Z,24.49
2023-04-04T23:31:39.203Z,24.52
2023-04-04T23:34:07.660Z,24.54
2023-04-04T23:36:36.384Z,24.55
2023-04-04T23:39:05.112Z,24.56
2023-04-04T23:41:33.481Z,24.56
2023-04-04T23:44:01.942Z,24.57
2023-04-04T23:46:33.484Z,24.60
2023-04-04T23:49:02.316Z,24.61
2023-04-04T23:51:39.982Z,24.65
2023-04-04T23:54:09.800Z,24.68
2023-04-04T23:56:38.655Z,24.70
2023-04-04T23:59:07.761Z,24.75
